sensor_id;sensor_type;location;lat;lon;timestamp;pressure;altitude;pressure_sealevel;temperature;humidity
71344;BME280;59146;43.850;25.948;2023-06-26T00:01:32;100733.44;;;21.33;96.72
71344;BME280;59146;43.850;25.948;2023-06-26T00:03:58;100680.47;;;21.06;95.61
71344;BME280;59146;43.850;25.948;2023-06-26T00:06:25;100728.78;;;21.27;96.42
71344;BME280;59146;43.850;25.948;2023-06-26T00:08:52;100720.41;;;21.22;95.73
71344;BME280;59146;43.850;25.948;2023-06-26T00:11:18;100724.03;;;21.13;96.03
71344;BME280;59146;43.850;25.948;2023-06-26T00:13:44;100703.28;;;20.99;97.89
71344;BME280;59146;43.850;25.948;2023-06-26T00:16:09;100714.75;;;21.00;97.63
71344;BME280;59146;43.850;25.948;2023-06-26T00:18:35;100717.25;;;21.01;97.34
71344;BME280;59146;43.850;25.948;2023-06-26T00:21:00;100670.78;;;20.80;96.92
71344;BME280;59146;43.850;25.948;2023-06-26T00:23:25;100715.59;;;21.00;96.96
71344;BME280;59146;43.850;25.948;2023-06-26T00:25:52;100711.34;;;21.07;96.51
71344;BME280;59146;43.850;25.948;2023-06-26T00:28:18;100645.94;;;20.63;96.35
71344;BME280;59146;43.850;25.948;2023-06-26T00:30:43;100699.44;;;20.94;97.13
71344;BME280;59146;43.850;25.948;2023-06-26T00:33:08;100687.47;;;20.90;96.79
71344;BME280;59146;43.850;25.948;2023-06-26T00:35:34;100675.94;;;20.81;96.10
71344;BME280;59146;43.850;25.948;2023-06-26T00:38:00;100569.78;;;20.20;96.60
71344;BME280;59146;43.850;25.948;2023-06-26T00:40:26;100698.97;;;20.98;96.58
71344;BME280;59146;43.850;25.948;2023-06-26T00:42:52;100651.75;;;20.67;97.01
71344;BME280;59146;43.850;25.948;2023-06-26T00:45:18;100672.22;;;20.74;97.46
71344;BME280;59146;43.850;25.948;2023-06-26T00:47:43;100653.06;;;20.63;96.75
71344;BME280;59146;43.850;25.948;2023-06-26T00:50:09;100537.19;;;19.93;96.80
71344;BME280;59146;43.850;25.948;2023-06-26T00:52:35;100703.06;;;20.93;98.46
71344;BME280;59146;43.850;25.948;2023-06-26T00:55:01;100647.59;;;20.64;96.93
71344;BME280;59146;43.850;25.948;2023-06-26T00:57:26;100652.31;;;20.52;97.27
71344;BME280;59146;43.850;25.948;2023-06-26T00:59:52;100672.59;;;20.79;97.79
71344;BME280;59146;43.850;25.948;2023-06-26T01:02:18;100691.94;;;20.89;98.80
71344;BME280;59146;43.850;25.948;2023-06-26T01:04:49;100682.16;;;20.90;98.05
71344;BME280;59146;43.850;25.948;2023-06-26T01:07:16;100640.47;;;20.65;97.59
71344;BME280;59146;43.850;25.948;2023-06-26T01:09:46;100705.81;;;21.01;96.91
71344;BME280;59146;43.850;25.948;2023-06-26T01:12:12;100657.59;;;20.70;97.31
71344;BME280;59146;43.850;25.948;2023-06-26T01:14:38;100710.13;;;21.02;98.05
71344;BME280;59146;43.850;25.948;2023-06-26T01:17:03;100635.78;;;20.58;97.58
71344;BME280;59146;43.850;25.948;2023-06-26T01:19:30;100685.56;;;20.82;97.61
71344;BME280;59146;43.850;25.948;2023-06-26T01:22:04;100555.75;;;20.10;96.90
71344;BME280;59146;43.850;25.948;2023-06-26T01:24:44;100700.94;;;20.96;96.44
71344;BME280;59146;43.850;25.948;2023-06-26T01:27:13;100690.72;;;20.84;95.91
71344;BME280;59146;43.850;25.948;2023-06-26T01:29:40;100686.72;;;20.80;97.71
71344;BME280;59146;43.850;25.948;2023-06-26T01:32:08;100665.88;;;20.67;97.46
71344;BME280;59146;43.850;25.948;2023-06-26T01:34:33;100679.22;;;20.75;97.70
71344;BME280;59146;43.850;25.948;2023-06-26T01:36:59;100659.56;;;20.68;96.84
71344;BME280;59146;43.850;25.948;2023-06-26T01:39:24;100699.09;;;20.97;96.86
71344;BME280;59146;43.850;25.948;2023-06-26T01:41:50;100701.75;;;20.97;96.19
71344;BME280;59146;43.850;25.948;2023-06-26T01:44:35;100673.56;;;20.78;97.37
71344;BME280;59146;43.850;25.948;2023-06-26T01:47:05;100679.03;;;20.94;96.00
71344;BME280;59146;43.850;25.948;2023-06-26T01:49:50;100720.66;;;21.11;95.84
71344;BME280;59146;43.850;25.948;2023-06-26T01:58:01;100698.91;;;20.90;97.95
71344;BME280;59146;43.850;25.948;2023-06-26T02:00:27;100704.75;;;20.94;98.40
71344;BME280;59146;43.850;25.948;2023-06-26T02:02:53;100662.22;;;20.68;97.25
71344;BME280;59146;43.850;25.948;2023-06-26T02:05:18;100671.31;;;20.83;95.23
71344;BME280;59146;43.850;25.948;2023-06-26T02:07:44;100696.25;;;20.90;96.82
71344;BME280;59146;43.850;25.948;2023-06-26T02:10:09;100705.09;;;20.99;96.25
71344;BME280;59146;43.850;25.948;2023-06-26T02:12:36;100691.19;;;20.79;96.09
71344;BME280;59146;43.850;25.948;2023-06-26T02:15:02;100647.81;;;20.53;97.28
71344;BME280;59146;43.850;25.948;2023-06-26T02:17:28;100715.13;;;20.87;96.99
71344;BME280;59146;43.850;25.948;2023-06-26T02:19:53;100708.16;;;20.86;96.08
71344;BME280;59146;43.850;25.948;2023-06-26T02:22:18;100695.25;;;20.74;96.31
71344;BME280;59146;43.850;25.948;2023-06-26T02:24:44;100704.13;;;20.82;97.19
71344;BME280;59146;43.850;25.948;2023-06-26T02:27:09;100653.69;;;20.56;96.65
71344;BME280;59146;43.850;25.948;2023-06-26T02:29:35;100654.47;;;20.57;97.09
71344;BME280;59146;43.850;25.948;2023-06-26T02:32:01;100583.91;;;20.11;98.67
71344;BME280;59146;43.850;25.948;2023-06-26T02:34:26;100675.25;;;20.62;97.87
71344;BME280;59146;43.850;25.948;2023-06-26T02:36:51;100694.75;;;20.70;99.07
71344;BME280;59146;43.850;25.948;2023-06-26T02:39:20;100651.31;;;20.53;98.70
71344;BME280;59146;43.850;25.948;2023-06-26T02:41:46;100696.09;;;20.74;98.06
71344;BME280;59146;43.850;25.948;2023-06-26T02:44:11;100650.72;;;20.42;98.23
71344;BME280;59146;43.850;25.948;2023-06-26T02:46:38;100690.81;;;20.74;97.32
71344;BME280;59146;43.850;25.948;2023-06-26T02:49:03;100687.41;;;20.82;96.69
71344;BME280;59146;43.850;25.948;2023-06-26T02:51:28;100649.72;;;20.61;97.11
71344;BME280;59146;43.850;25.948;2023-06-26T02:53:54;100705.94;;;20.99;96.70
71344;BME280;59146;43.850;25.948;2023-06-26T02:56:19;100692.59;;;20.91;95.20
71344;BME280;59146;43.850;25.948;2023-06-26T02:58:45;100682.75;;;20.84;94.78
71344;BME280;59146;43.850;25.948;2023-06-26T03:01:10;100695.13;;;20.75;95.63
71344;BME280;59146;43.850;25.948;2023-06-26T03:03:35;100643.56;;;20.60;95.10
71344;BME280;59146;43.850;25.948;2023-06-26T03:06:08;100693.78;;;20.97;95.01
71344;BME280;59146;43.850;25.948;2023-06-26T03:08:36;100654.88;;;20.80;95.12
71344;BME280;59146;43.850;25.948;2023-06-26T03:11:02;100651.03;;;20.82;94.64
71344;BME280;59146;43.850;25.948;2023-06-26T03:13:28;100642.41;;;20.80;94.90
71344;BME280;59146;43.850;25.948;2023-06-26T03:15:53;100682.44;;;21.04;94.45
71344;BME280;59146;43.850;25.948;2023-06-26T03:18:19;100648.38;;;20.82;95.10
71344;BME280;59146;43.850;25.948;2023-06-26T03:20:44;100649.28;;;20.65;96.89
71344;BME280;59146;43.850;25.948;2023-06-26T03:23:09;100670.78;;;20.80;98.16
71344;BME280;59146;43.850;25.948;2023-06-26T03:25:35;100650.94;;;20.66;97.62
71344;BME280;59146;43.850;25.948;2023-06-26T03:28:00;100654.91;;;20.88;96.87
71344;BME280;59146;43.850;25.948;2023-06-26T03:30:26;100654.25;;;20.86;96.53
71344;BME280;59146;43.850;25.948;2023-06-26T03:32:51;100640.69;;;20.97;94.03
71344;BME280;59146;43.850;25.948;2023-06-26T03:35:16;100651.78;;;21.10;92.90
71344;BME280;59146;43.850;25.948;2023-06-26T03:37:42;100668.00;;;21.32;91.25
71344;BME280;59146;43.850;25.948;2023-06-26T03:40:08;100632.59;;;20.98;91.72
71344;BME280;59146;43.850;25.948;2023-06-26T03:42:34;100678.13;;;21.29;93.62
71344;BME280;59146;43.850;25.948;2023-06-26T03:45:00;100637.72;;;21.17;92.89
71344;BME280;59146;43.850;25.948;2023-06-26T03:47:25;100683.22;;;21.48;93.61
71344;BME280;59146;43.850;25.948;2023-06-26T03:49:50;100665.34;;;21.32;94.73
71344;BME280;59146;43.850;25.948;2023-06-26T03:52:16;100648.09;;;21.36;95.20
71344;BME280;59146;43.850;25.948;2023-06-26T03:54:41;100565.41;;;20.80;95.89
71344;BME280;59146;43.850;25.948;2023-06-26T03:57:06;100678.13;;;21.55;95.85
71344;BME280;59146;43.850;25.948;2023-06-26T03:59:32;100697.97;;;21.76;95.76
71344;BME280;59146;43.850;25.948;2023-06-26T04:01:57;100701.31;;;21.78;96.08
71344;BME280;59146;43.850;25.948;2023-06-26T04:04:23;100653.56;;;21.61;94.49
71344;BME280;59146;43.850;25.948;2023-06-26T04:06:49;100644.88;;;21.51;94.47
71344;BME280;59146;43.850;25.948;2023-06-26T04:09:14;100627.38;;;21.40;94.77
71344;BME280;59146;43.850;25.948;2023-06-26T04:11:40;100627.47;;;21.30;94.30
71344;BME280;59146;43.850;25.948;2023-06-26T04:14:05;100691.75;;;21.60;94.27
71344;BME280;59146;43.850;25.948;2023-06-26T04:16:30;100635.88;;;21.18;94.76
71344;BME280;59146;43.850;25.948;2023-06-26T04:18:56;100697.69;;;21.54;94.43
71344;BME280;59146;43.850;25.948;2023-06-26T04:21:22;100672.66;;;21.30;96.40
71344;BME280;59146;43.850;25.948;2023-06-26T04:23:50;100690.00;;;21.43;95.79
71344;BME280;59146;43.850;25.948;2023-06-26T04:26:15;100646.28;;;21.11;96.02
71344;BME280;59146;43.850;25.948;2023-06-26T04:28:41;100711.31;;;21.51;95.54
71344;BME280;59146;43.850;25.948;2023-06-26T04:31:07;100703.34;;;21.51;96.26
71344;BME280;59146;43.850;25.948;2023-06-26T04:33:32;100686.84;;;21.47;95.33
71344;BME280;59146;43.850;25.948;2023-06-26T04:35:58;100694.41;;;21.60;94.83
71344;BME280;59146;43.850;25.948;2023-06-26T04:38:24;100696.25;;;21.59;94.54
71344;BME280;59146;43.850;25.948;2023-06-26T04:40:50;100725.63;;;21.83;94.16
71344;BME280;59146;43.850;25.948;2023-06-26T04:43:15;100668.22;;;21.39;95.10
71344;BME280;59146;43.850;25.948;2023-06-26T04:45:41;100661.00;;;21.23;95.98
71344;BME280;59146;43.850;25.948;2023-06-26T04:48:07;100661.94;;;21.40;95.25
71344;BME280;59146;43.850;25.948;2023-06-26T04:50:32;100736.16;;;21.93;94.06
71344;BME280;59146;43.850;25.948;2023-06-26T04:52:58;100671.88;;;21.72;93.42
71344;BME280;59146;43.850;25.948;2023-06-26T04:55:24;100701.22;;;21.88;93.16
71344;BME280;59146;43.850;25.948;2023-06-26T04:57:50;100662.94;;;21.81;92.30
71344;BME280;59146;43.850;25.948;2023-06-26T05:00:16;100715.44;;;22.21;92.13
71344;BME280;59146;43.850;25.948;2023-06-26T05:02:41;100686.16;;;22.04;91.43
71344;BME280;59146;43.850;25.948;2023-06-26T05:05:07;100692.13;;;22.06;91.06
71344;BME280;59146;43.850;25.948;2023-06-26T05:07:33;100720.28;;;22.25;90.71
71344;BME280;59146;43.850;25.948;2023-06-26T05:09:59;100732.97;;;22.39;89.53
71344;BME280;59146;43.850;25.948;2023-06-26T05:12:24;100716.66;;;22.26;90.32
71344;BME280;59146;43.850;25.948;2023-06-26T05:14:49;100692.34;;;22.21;90.13
71344;BME280;59146;43.850;25.948;2023-06-26T05:17:15;100720.84;;;22.37;89.96
71344;BME280;59146;43.850;25.948;2023-06-26T05:19:41;100726.16;;;22.45;88.28
71344;BME280;59146;43.850;25.948;2023-06-26T05:22:07;100740.81;;;22.57;89.39
71344;BME280;59146;43.850;25.948;2023-06-26T05:24:38;100735.00;;;22.45;89.35
71344;BME280;59146;43.850;25.948;2023-06-26T05:27:04;100611.84;;;21.53;90.54
71344;BME280;59146;43.850;25.948;2023-06-26T05:29:31;100747.44;;;22.37;89.94
71344;BME280;59146;43.850;25.948;2023-06-26T05:31:57;100692.03;;;22.24;89.38
71344;BME280;59146;43.850;25.948;2023-06-26T05:34:23;100658.72;;;22.04;89.85
71344;BME280;59146;43.850;25.948;2023-06-26T05:36:55;100686.06;;;22.30;88.96
71344;BME280;59146;43.850;25.948;2023-06-26T05:39:22;100719.81;;;22.38;89.13
71344;BME280;59146;43.850;25.948;2023-06-26T05:41:48;100642.34;;;21.83;89.97
71344;BME280;59146;43.850;25.948;2023-06-26T05:44:13;100677.22;;;22.13;88.72
71344;BME280;59146;43.850;25.948;2023-06-26T05:46:39;100750.84;;;22.63;89.51
71344;BME280;59146;43.850;25.948;2023-06-26T05:49:04;100688.72;;;22.38;88.07
71344;BME280;59146;43.850;25.948;2023-06-26T05:51:30;100696.72;;;22.54;86.40
71344;BME280;59146;43.850;25.948;2023-06-26T05:53:55;100720.41;;;22.89;86.27
71344;BME280;59146;43.850;25.948;2023-06-26T05:56:21;100668.47;;;22.77;85.08
71344;BME280;59146;43.850;25.948;2023-06-26T05:58:47;100698.44;;;22.79;84.88
71344;BME280;59146;43.850;25.948;2023-06-26T06:01:13;100742.06;;;23.27;85.20
71344;BME280;59146;43.850;25.948;2023-06-26T06:03:39;100693.78;;;22.98;85.10
71344;BME280;59146;43.850;25.948;2023-06-26T06:06:05;100692.09;;;23.21;84.17
71344;BME280;59146;43.850;25.948;2023-06-26T06:08:30;100634.66;;;23.18;81.91
71344;BME280;59146;43.850;25.948;2023-06-26T06:10:56;100697.28;;;23.85;80.66
71344;BME280;59146;43.850;25.948;2023-06-26T06:13:21;100692.19;;;24.06;79.81
71344;BME280;59146;43.850;25.948;2023-06-26T06:15:46;100688.53;;;23.99;79.38
71344;BME280;59146;43.850;25.948;2023-06-26T06:18:12;100695.53;;;24.08;78.13
71344;BME280;59146;43.850;25.948;2023-06-26T06:20:37;100695.63;;;23.76;79.63
71344;BME280;59146;43.850;25.948;2023-06-26T06:23:03;100699.00;;;23.70;78.92
71344;BME280;59146;43.850;25.948;2023-06-26T06:25:28;100697.03;;;23.56;80.01
71344;BME280;59146;43.850;25.948;2023-06-26T06:27:54;100700.13;;;23.76;79.64
71344;BME280;59146;43.850;25.948;2023-06-26T06:30:19;100745.00;;;24.50;77.66
71344;BME280;59146;43.850;25.948;2023-06-26T06:32:45;100704.66;;;24.67;76.02
71344;BME280;59146;43.850;25.948;2023-06-26T06:35:11;100753.69;;;25.71;73.57
71344;BME280;59146;43.850;25.948;2023-06-26T06:37:37;100727.56;;;26.02;68.87
71344;BME280;59146;43.850;25.948;2023-06-26T06:40:06;100713.19;;;26.04;68.93
71344;BME280;59146;43.850;25.948;2023-06-26T06:42:32;100704.44;;;25.51;69.88
71344;BME280;59146;43.850;25.948;2023-06-26T06:44:58;100684.59;;;25.60;69.53
71344;BME280;59146;43.850;25.948;2023-06-26T06:47:24;100619.75;;;25.29;70.30
71344;BME280;59146;43.850;25.948;2023-06-26T06:49:49;100667.72;;;25.45;68.88
71344;BME280;59146;43.850;25.948;2023-06-26T06:52:14;100743.97;;;25.99;69.50
71344;BME280;59146;43.850;25.948;2023-06-26T06:54:55;100755.91;;;25.82;69.18
71344;BME280;59146;43.850;25.948;2023-06-26T06:57:21;100755.72;;;25.69;67.98
71344;BME280;59146;43.850;25.948;2023-06-26T06:59:47;100729.72;;;25.63;65.46
71344;BME280;59146;43.850;25.948;2023-06-26T07:02:15;100713.13;;;25.53;63.14
71344;BME280;59146;43.850;25.948;2023-06-26T07:04:41;100722.34;;;25.65;59.80
71344;BME280;59146;43.850;25.948;2023-06-26T07:07:06;100714.22;;;25.44;57.86
71344;BME280;59146;43.850;25.948;2023-06-26T07:09:32;100654.91;;;25.26;57.80
71344;BME280;59146;43.850;25.948;2023-06-26T07:11:58;100712.28;;;25.82;55.99
71344;BME280;59146;43.850;25.948;2023-06-26T07:14:23;100713.25;;;25.95;54.79
71344;BME280;59146;43.850;25.948;2023-06-26T07:16:48;100719.63;;;25.94;56.01
71344;BME280;59146;43.850;25.948;2023-06-26T07:19:14;100661.44;;;25.82;53.88
71344;BME280;59146;43.850;25.948;2023-06-26T07:21:39;100734.53;;;26.90;53.06
71344;BME280;59146;43.850;25.948;2023-06-26T07:24:06;100717.50;;;27.46;50.88
71344;BME280;59146;43.850;25.948;2023-06-26T07:26:32;100760.53;;;27.66;51.17
71344;BME280;59146;43.850;25.948;2023-06-26T07:28:57;100720.22;;;28.27;50.06
71344;BME280;59146;43.850;25.948;2023-06-26T07:31:22;100674.63;;;28.67;46.40
71344;BME280;59146;43.850;25.948;2023-06-26T07:33:48;100767.13;;;29.12;46.16
71344;BME280;59146;43.850;25.948;2023-06-26T07:36:13;100751.81;;;28.99;47.23
71344;BME280;59146;43.850;25.948;2023-06-26T07:38:39;100693.75;;;28.31;47.81
71344;BME280;59146;43.850;25.948;2023-06-26T07:41:04;100758.59;;;28.15;48.83
71344;BME280;59146;43.850;25.948;2023-06-26T07:43:29;100718.47;;;27.38;51.01
71344;BME280;59146;43.850;25.948;2023-06-26T07:45:56;100663.31;;;27.02;50.58
71344;BME280;59146;43.850;25.948;2023-06-26T07:48:24;100727.22;;;28.28;48.83
71344;BME280;59146;43.850;25.948;2023-06-26T07:50:49;100747.69;;;29.16;46.87
71344;BME280;59146;43.850;25.948;2023-06-26T07:53:14;100711.19;;;29.66;45.85
71344;BME280;59146;43.850;25.948;2023-06-26T07:55:40;100738.75;;;30.32;43.53
71344;BME280;59146;43.850;25.948;2023-06-26T07:58:06;100727.50;;;29.97;44.55
71344;BME280;59146;43.850;25.948;2023-06-26T08:00:32;100727.19;;;30.18;43.44
71344;BME280;59146;43.850;25.948;2023-06-26T08:02:57;100725.69;;;29.65;43.83
71344;BME280;59146;43.850;25.948;2023-06-26T08:05:22;100729.84;;;29.54;43.98
71344;BME280;59146;43.850;25.948;2023-06-26T08:07:48;100730.88;;;28.68;46.13
71344;BME280;59146;43.850;25.948;2023-06-26T08:10:13;100711.66;;;28.04;49.02
71344;BME280;59146;43.850;25.948;2023-06-26T08:12:39;100691.41;;;27.68;50.34
71344;BME280;59146;43.850;25.948;2023-06-26T08:15:06;100700.75;;;27.37;50.44
71344;BME280;59146;43.850;25.948;2023-06-26T08:17:31;100735.38;;;27.67;50.17
71344;BME280;59146;43.850;25.948;2023-06-26T08:19:57;100672.03;;;27.38;49.81
71344;BME280;59146;43.850;25.948;2023-06-26T08:22:23;100743.50;;;27.80;49.79
71344;BME280;59146;43.850;25.948;2023-06-26T08:24:49;100724.72;;;27.45;49.99
71344;BME280;59146;43.850;25.948;2023-06-26T08:27:14;100762.66;;;27.70;50.50
71344;BME280;59146;43.850;25.948;2023-06-26T08:29:39;100757.34;;;28.17;50.93
71344;BME280;59146;43.850;25.948;2023-06-26T08:32:05;100762.56;;;28.92;49.06
71344;BME280;59146;43.850;25.948;2023-06-26T08:34:30;100734.19;;;28.83;47.15
71344;BME280;59146;43.850;25.948;2023-06-26T08:36:56;100719.97;;;28.22;49.22
71344;BME280;59146;43.850;25.948;2023-06-26T08:39:21;100730.41;;;27.98;49.68
71344;BME280;59146;43.850;25.948;2023-06-26T08:41:47;100680.69;;;27.06;52.04
71344;BME280;59146;43.850;25.948;2023-06-26T08:44:12;100704.25;;;27.17;51.98
71344;BME280;59146;43.850;25.948;2023-06-26T08:46:38;100689.53;;;26.79;52.85
71344;BME280;59146;43.850;25.948;2023-06-26T08:49:28;100698.63;;;26.84;52.75
71344;BME280;59146;43.850;25.948;2023-06-26T08:51:59;100695.69;;;26.58;53.88
71344;BME280;59146;43.850;25.948;2023-06-26T08:54:32;100718.06;;;26.50;53.09
71344;BME280;59146;43.850;25.948;2023-06-26T08:56:59;100754.47;;;26.45;54.93
71344;BME280;59146;43.850;25.948;2023-06-26T08:59:25;100708.56;;;25.68;55.84
71344;BME280;59146;43.850;25.948;2023-06-26T09:01:51;100729.81;;;25.70;57.32
71344;BME280;59146;43.850;25.948;2023-06-26T09:04:17;100747.16;;;25.74;57.28
71344;BME280;59146;43.850;25.948;2023-06-26T09:06:42;100757.22;;;25.72;57.87
71344;BME280;59146;43.850;25.948;2023-06-26T09:09:09;100663.78;;;25.04;58.11
71344;BME280;59146;43.850;25.948;2023-06-26T09:11:35;100665.25;;;24.92;57.85
71344;BME280;59146;43.850;25.948;2023-06-26T09:14:01;100690.13;;;24.92;57.52
71344;BME280;59146;43.850;25.948;2023-06-26T09:16:30;100694.72;;;24.84;58.22
71344;BME280;59146;43.850;25.948;2023-06-26T09:18:56;100717.31;;;24.96;59.28
71344;BME280;59146;43.850;25.948;2023-06-26T09:21:22;100744.91;;;25.11;60.39
71344;BME280;59146;43.850;25.948;2023-06-26T09:23:49;100720.41;;;24.85;62.42
71344;BME280;59146;43.850;25.948;2023-06-26T09:26:15;100749.13;;;25.05;62.16
71344;BME280;59146;43.850;25.948;2023-06-26T09:28:42;100759.50;;;25.23;63.11
71344;BME280;59146;43.850;25.948;2023-06-26T09:31:08;100761.50;;;25.44;63.14
71344;BME280;59146;43.850;25.948;2023-06-26T09:33:36;100737.06;;;25.09;66.21
71344;BME280;59146;43.850;25.948;2023-06-26T09:36:10;100670.34;;;24.33;68.43
71344;BME280;59146;43.850;25.948;2023-06-26T09:38:43;100756.50;;;24.81;69.79
71344;BME280;59146;43.850;25.948;2023-06-26T09:41:09;100757.31;;;24.59;72.18
71344;BME280;59146;43.850;25.948;2023-06-26T09:43:34;100700.06;;;24.30;74.86
71344;BME280;59146;43.850;25.948;2023-06-26T09:46:00;100649.97;;;23.79;74.55
71344;BME280;59146;43.850;25.948;2023-06-26T09:48:27;100762.13;;;24.63;76.09
71344;BME280;59146;43.850;25.948;2023-06-26T09:50:53;100669.53;;;23.94;77.29
71344;BME280;59146;43.850;25.948;2023-06-26T09:53:19;100701.09;;;24.52;77.63
71344;BME280;59146;43.850;25.948;2023-06-26T09:55:45;100714.13;;;24.78;75.15
71344;BME280;59146;43.850;25.948;2023-06-26T09:58:12;100706.63;;;24.96;73.28
71344;BME280;59146;43.850;25.948;2023-06-26T10:00:41;100751.66;;;25.21;73.55
71344;BME280;59146;43.850;25.948;2023-06-26T10:03:12;100747.34;;;24.98;74.27
71344;BME280;59146;43.850;25.948;2023-06-26T10:05:40;100727.84;;;24.75;74.00
71344;BME280;59146;43.850;25.948;2023-06-26T10:08:06;100778.78;;;24.96;72.75
71344;BME280;59146;43.850;25.948;2023-06-26T10:10:34;100709.66;;;24.93;71.85
71344;BME280;59146;43.850;25.948;2023-06-26T10:13:08;100724.84;;;25.15;71.75
71344;BME280;59146;43.850;25.948;2023-06-26T10:15:36;100683.16;;;25.06;70.82
71344;BME280;59146;43.850;25.948;2023-06-26T10:18:03;100751.56;;;25.67;69.94
71344;BME280;59146;43.850;25.948;2023-06-26T10:20:29;100664.84;;;25.17;68.21
71344;BME280;59146;43.850;25.948;2023-06-26T10:22:57;100716.69;;;25.60;71.50
71344;BME280;59146;43.850;25.948;2023-06-26T10:25:26;100730.41;;;25.28;73.28
71344;BME280;59146;43.850;25.948;2023-06-26T10:27:57;100724.25;;;25.05;72.58
71344;BME280;59146;43.850;25.948;2023-06-26T10:30:27;100673.06;;;24.71;72.79
71344;BME280;59146;43.850;25.948;2023-06-26T10:32:54;100687.03;;;24.81;74.42
71344;BME280;59146;43.850;25.948;2023-06-26T10:35:21;100710.13;;;24.96;75.95
71344;BME280;59146;43.850;25.948;2023-06-26T10:37:49;100699.75;;;25.16;75.12
71344;BME280;59146;43.850;25.948;2023-06-26T10:40:22;100725.97;;;25.35;75.08
71344;BME280;59146;43.850;25.948;2023-06-26T10:42:47;100697.44;;;25.13;74.14
71344;BME280;59146;43.850;25.948;2023-06-26T10:45:19;100735.53;;;25.15;73.55
71344;BME280;59146;43.850;25.948;2023-06-26T10:47:52;100693.47;;;24.64;75.25
71344;BME280;59146;43.850;25.948;2023-06-26T10:50:30;100750.38;;;24.95;74.86
71344;BME280;59146;43.850;25.948;2023-06-26T10:53:10;100685.41;;;24.26;76.60
71344;BME280;59146;43.850;25.948;2023-06-26T10:55:36;100749.28;;;24.59;76.91
71344;BME280;59146;43.850;25.948;2023-06-26T10:58:02;100684.09;;;24.22;77.21
71344;BME280;59146;43.850;25.948;2023-06-26T11:00:28;100733.31;;;24.51;79.35
71344;BME280;59146;43.850;25.948;2023-06-26T11:02:53;100689.44;;;24.22;79.68
71344;BME280;59146;43.850;25.948;2023-06-26T11:05:29;100731.19;;;24.46;80.49
71344;BME280;59146;43.850;25.948;2023-06-26T11:08:08;100725.53;;;24.41;79.01
71344;BME280;59146;43.850;25.948;2023-06-26T11:10:53;100745.84;;;24.73;77.02
71344;BME280;59146;43.850;25.948;2023-06-26T11:13:19;100696.03;;;24.57;76.44
71344;BME280;59146;43.850;25.948;2023-06-26T11:15:46;100672.72;;;24.51;76.16
71344;BME280;59146;43.850;25.948;2023-06-26T11:18:12;100736.59;;;25.06;75.03
71344;BME280;59146;43.850;25.948;2023-06-26T11:20:38;100724.19;;;25.13;74.01
71344;BME280;59146;43.850;25.948;2023-06-26T11:23:04;100739.84;;;25.16;74.14
71344;BME280;59146;43.850;25.948;2023-06-26T11:25:37;100745.69;;;25.34;73.84
71344;BME280;59146;43.850;25.948;2023-06-26T11:28:04;100701.84;;;25.72;72.17
71344;BME280;59146;43.850;25.948;2023-06-26T11:30:31;100735.31;;;26.48;70.21
71344;BME280;59146;43.850;25.948;2023-06-26T11:33:09;100754.88;;;26.63;67.98
71344;BME280;59146;43.850;25.948;2023-06-26T11:35:35;100693.38;;;26.34;67.82
71344;BME280;59146;43.850;25.948;2023-06-26T11:38:02;100731.31;;;26.58;65.92
71344;BME280;59146;43.850;25.948;2023-06-26T11:40:33;100624.13;;;26.10;66.57
71344;BME280;59146;43.850;25.948;2023-06-26T11:43:00;100703.53;;;27.02;65.57
71344;BME280;59146;43.850;25.948;2023-06-26T11:45:32;100723.88;;;26.96;64.58
71344;BME280;59146;43.850;25.948;2023-06-26T11:47:59;100649.63;;;26.48;63.53
71344;BME280;59146;43.850;25.948;2023-06-26T11:50:25;100618.66;;;26.03;63.94
71344;BME280;59146;43.850;25.948;2023-06-26T11:52:57;100706.75;;;26.34;63.38
71344;BME280;59146;43.850;25.948;2023-06-26T11:55:24;100725.84;;;26.10;63.62
71344;BME280;59146;43.850;25.948;2023-06-26T11:57:52;100684.09;;;26.15;63.05
71344;BME280;59146;43.850;25.948;2023-06-26T12:00:18;100648.56;;;26.07;62.62
71344;BME280;59146;43.850;25.948;2023-06-26T12:02:45;100717.13;;;26.79;60.12
71344;BME280;59146;43.850;25.948;2023-06-26T12:05:12;100692.31;;;27.19;58.21
71344;BME280;59146;43.850;25.948;2023-06-26T12:07:39;100673.41;;;27.00;58.46
71344;BME280;59146;43.850;25.948;2023-06-26T12:10:06;100645.59;;;26.58;59.89
71344;BME280;59146;43.850;25.948;2023-06-26T12:12:32;100618.44;;;26.61;57.71
71344;BME280;59146;43.850;25.948;2023-06-26T12:14:58;100669.16;;;27.12;58.88
71344;BME280;59146;43.850;25.948;2023-06-26T12:17:25;100697.50;;;27.21;58.12
71344;BME280;59146;43.850;25.948;2023-06-26T12:19:51;100618.25;;;26.84;58.23
71344;BME280;59146;43.850;25.948;2023-06-26T12:22:17;100626.81;;;27.01;58.42
71344;BME280;59146;43.850;25.948;2023-06-26T12:24:44;100641.94;;;27.15;58.20
71344;BME280;59146;43.850;25.948;2023-06-26T12:27:11;100526.06;;;26.30;58.30
71344;BME280;59146;43.850;25.948;2023-06-26T12:29:39;100702.03;;;27.20;58.39
71344;BME280;59146;43.850;25.948;2023-06-26T12:32:08;100638.66;;;26.64;59.15
71344;BME280;59146;43.850;25.948;2023-06-26T12:34:36;100696.25;;;27.23;58.12
71344;BME280;59146;43.850;25.948;2023-06-26T12:37:04;100556.81;;;26.34;58.56
71344;BME280;59146;43.850;25.948;2023-06-26T12:39:29;100688.34;;;27.36;59.67
71344;BME280;59146;43.850;25.948;2023-06-26T12:42:00;100656.19;;;27.15;57.89
71344;BME280;59146;43.850;25.948;2023-06-26T12:44:28;100675.56;;;27.38;58.48